sensor_id;sensor_type;location;lat;lon;timestamp;pressure;altitude;pressure_sealevel;temperature;humidity
53522;BME280;39398;48.382;9.802;2022-10-31T00:00:04;94284.97;;;16.21;54.84
53522;BME280;39398;48.382;9.802;2022-10-31T00:01:09;94282.94;;;16.17;54.88
53522;BME280;39398;48.382;9.802;2022-10-31T00:02:11;94282.38;;;16.15;55.95
53522;BME280;39398;48.382;9.802;2022-10-31T00:03:13;94288.56;;;16.09;58.48
53522;BME280;39398;48.382;9.802;2022-10-31T00:04:14;94284.09;;;16.02;59.03
53522;BME280;39398;48.382;9.802;2022-10-31T00:05:16;94282.44;;;16.01;56.89
53522;BME280;39398;48.382;9.802;2022-10-31T00:06:17;94286.81;;;15.96;59.55
53522;BME280;39398;48.382;9.802;2022-10-31T00:07:19;94280.69;;;15.89;56.60
53522;BME280;39398;48.382;9.802;2022-10-31T00:08:20;94283.19;;;15.84;56.17
53522;BME280;39398;48.382;9.802;2022-10-31T00:09:22;94283.31;;;15.95;55.96
53522;BME280;39398;48.382;9.802;2022-10-31T00:10:23;94282.78;;;16.12;56.05
53522;BME280;39398;48.382;9.802;2022-10-31T00:11:25;94282.75;;;16.18;56.44
53522;BME280;39398;48.382;9.802;2022-10-31T00:12:26;94285.41;;;16.18;55.98
53522;BME280;39398;48.382;9.802;2022-10-31T00:13:29;94289.88;;;16.24;55.83
53522;BME280;39398;48.382;9.802;2022-10-31T00:14:32;94288.16;;;16.30;58.12
53522;BME280;39398;48.382;9.802;2022-10-31T00:15:34;94295.06;;;16.13;57.11
53522;BME280;39398;48.382;9.802;2022-10-31T00:16:35;94291.78;;;16.11;56.30
53522;BME280;39398;48.382;9.802;2022-10-31T00:17:36;94289.06;;;16.17;55.96
53522;BME280;39398;48.382;9.802;2022-10-31T00:18:38;94295.41;;;16.23;55.79
53522;BME280;39398;48.382;9.802;2022-10-31T00:19:39;94289.44;;;16.27;55.23
53522;BME280;39398;48.382;9.802;2022-10-31T00:20:41;94285.16;;;16.20;55.99
53522;BME280;39398;48.382;9.802;2022-10-31T00:21:42;94283.31;;;16.20;56.62
53522;BME280;39398;48.382;9.802;2022-10-31T00:22:44;94290.41;;;16.08;56.83
53522;BME280;39398;48.382;9.802;2022-10-31T00:23:45;94286.47;;;16.11;56.87
53522;BME280;39398;48.382;9.802;2022-10-31T00:24:47;94294.88;;;16.08;57.42
53522;BME280;39398;48.382;9.802;2022-10-31T00:25:48;94290.06;;;16.23;55.93
53522;BME280;39398;48.382;9.802;2022-10-31T00:26:50;94288.44;;;16.22;56.01
53522;BME280;39398;48.382;9.802;2022-10-31T00:27:51;94289.88;;;16.24;56.41
53522;BME280;39398;48.382;9.802;2022-10-31T00:28:54;94284.97;;;16.21;55.86
53522;BME280;39398;48.382;9.802;2022-10-31T00:29:56;94283.13;;;16.22;55.73
53522;BME280;39398;48.382;9.802;2022-10-31T00:31:01;94285.13;;;16.26;55.98
53522;BME280;39398;48.382;9.802;2022-10-31T00:32:03;94288.00;;;16.25;55.31
53522;BME280;39398;48.382;9.802;2022-10-31T00:33:04;94285.13;;;16.26;55.19
53522;BME280;39398;48.382;9.802;2022-10-31T00:34:06;94281.22;;;16.29;54.84
53522;BME280;39398;48.382;9.802;2022-10-31T00:35:08;94286.34;;;16.24;55.08
53522;BME280;39398;48.382;9.802;2022-10-31T00:36:11;94291.88;;;16.29;55.20
53522;BME280;39398;48.382;9.802;2022-10-31T00:37:13;94288.94;;;15.80;56.01
53522;BME280;39398;48.382;9.802;2022-10-31T00:38:14;94291.81;;;15.79;56.14
53522;BME280;39398;48.382;9.802;2022-10-31T00:39:15;94289.16;;;15.79;56.26
53522;BME280;39398;48.382;9.802;2022-10-31T00:40:17;94291.28;;;15.64;56.93
53522;BME280;39398;48.382;9.802;2022-10-31T00:41:18;94297.41;;;15.64;57.46
53522;BME280;39398;48.382;9.802;2022-10-31T00:42:20;94295.78;;;15.70;57.48
53522;BME280;39398;48.382;9.802;2022-10-31T00:43:21;94296.63;;;15.50;57.95
53522;BME280;39398;48.382;9.802;2022-10-31T00:44:24;94292.84;;;15.33;58.79
53522;BME280;39398;48.382;9.802;2022-10-31T00:45:26;94296.91;;;15.42;58.08
53522;BME280;39398;48.382;9.802;2022-10-31T00:46:27;94299.13;;;15.45;58.03
53522;BME280;39398;48.382;9.802;2022-10-31T00:47:29;94294.44;;;15.41;58.19
53522;BME280;39398;48.382;9.802;2022-10-31T00:48:30;94303.66;;;15.45;57.78
53522;BME280;39398;48.382;9.802;2022-10-31T00:49:32;94297.28;;;15.46;57.48
53522;BME280;39398;48.382;9.802;2022-10-31T00:50:33;94296.44;;;15.52;57.54
53522;BME280;39398;48.382;9.802;2022-10-31T00:51:34;94295.41;;;15.53;57.27
53522;BME280;39398;48.382;9.802;2022-10-31T00:52:36;94298.47;;;15.56;57.04
53522;BME280;39398;48.382;9.802;2022-10-31T00:53:37;94293.16;;;15.50;57.07
53522;BME280;39398;48.382;9.802;2022-10-31T00:54:39;94300.16;;;15.44;57.02
53522;BME280;39398;48.382;9.802;2022-10-31T00:55:40;94295.63;;;15.51;56.96
53522;BME280;39398;48.382;9.802;2022-10-31T00:56:42;94300.72;;;15.53;57.03
53522;BME280;39398;48.382;9.802;2022-10-31T00:57:46;94296.50;;;15.39;57.66
53522;BME280;39398;48.382;9.802;2022-10-31T00:58:47;94297.19;;;15.21;57.72
53522;BME280;39398;48.382;9.802;2022-10-31T00:59:50;94298.00;;;15.21;57.37
53522;BME280;39398;48.382;9.802;2022-10-31T01:00:52;94295.38;;;15.15;57.66
53522;BME280;39398;48.382;9.802;2022-10-31T01:01:54;94295.97;;;15.23;57.32
53522;BME280;39398;48.382;9.802;2022-10-31T01:02:55;94291.72;;;15.16;57.37
53522;BME280;39398;48.382;9.802;2022-10-31T01:03:57;94293.91;;;15.19;56.73
53522;BME280;39398;48.382;9.802;2022-10-31T01:04:59;94290.06;;;15.15;56.63
53522;BME280;39398;48.382;9.802;2022-10-31T01:06:03;94296.00;;;15.10;56.41
53522;BME280;39398;48.382;9.802;2022-10-31T01:07:05;94288.03;;;15.10;55.88
53522;BME280;39398;48.382;9.802;2022-10-31T01:08:07;94290.69;;;15.10;55.82
53522;BME280;39398;48.382;9.802;2022-10-31T01:09:08;94287.25;;;15.03;56.00
53522;BME280;39398;48.382;9.802;2022-10-31T01:10:10;94291.34;;;14.99;55.87
53522;BME280;39398;48.382;9.802;2022-10-31T01:11:14;94287.47;;;14.95;55.95
53522;BME280;39398;48.382;9.802;2022-10-31T01:12:16;94285.84;;;14.94;55.86
53522;BME280;39398;48.382;9.802;2022-10-31T01:13:17;94283.22;;;14.87;56.37
53522;BME280;39398;48.382;9.802;2022-10-31T01:14:19;94283.03;;;14.75;56.78
53522;BME280;39398;48.382;9.802;2022-10-31T01:15:22;94286.72;;;14.61;57.19
53522;BME280;39398;48.382;9.802;2022-10-31T01:16:25;94283.47;;;14.46;57.61
53522;BME280;39398;48.382;9.802;2022-10-31T01:17:27;94284.47;;;14.38;58.26
53522;BME280;39398;48.382;9.802;2022-10-31T01:18:29;94285.91;;;14.34;58.48
53522;BME280;39398;48.382;9.802;2022-10-31T01:19:31;94280.59;;;14.34;58.42
53522;BME280;39398;48.382;9.802;2022-10-31T01:20:32;94281.22;;;14.36;58.54
53522;BME280;39398;48.382;9.802;2022-10-31T01:21:34;94285.91;;;14.34;58.54
53522;BME280;39398;48.382;9.802;2022-10-31T01:22:35;94287.75;;;14.40;58.16
53522;BME280;39398;48.382;9.802;2022-10-31T01:23:37;94280.81;;;14.39;58.27
53522;BME280;39398;48.382;9.802;2022-10-31T01:24:38;94281.44;;;14.28;58.66
53522;BME280;39398;48.382;9.802;2022-10-31T01:25:40;94284.91;;;14.22;58.75
53522;BME280;39398;48.382;9.802;2022-10-31T01:26:41;94280.41;;;14.15;58.83
53522;BME280;39398;48.382;9.802;2022-10-31T01:27:43;94280.41;;;14.15;58.55
53522;BME280;39398;48.382;9.802;2022-10-31T01:28:46;94278.97;;;14.19;58.16
53522;BME280;39398;48.382;9.802;2022-10-31T01:29:48;94277.97;;;14.07;58.49
53522;BME280;39398;48.382;9.802;2022-10-31T01:30:51;94282.25;;;14.02;58.50
53522;BME280;39398;48.382;9.802;2022-10-31T01:31:52;94282.44;;;13.87;59.61
53522;BME280;39398;48.382;9.802;2022-10-31T01:32:54;94281.38;;;13.68;59.55
53522;BME280;39398;48.382;9.802;2022-10-31T01:33:56;94284.44;;;13.58;60.52
53522;BME280;39398;48.382;9.802;2022-10-31T01:34:57;94279.91;;;13.52;61.47
53522;BME280;39398;48.382;9.802;2022-10-31T01:35:59;94278.91;;;13.46;61.61
53522;BME280;39398;48.382;9.802;2022-10-31T01:37:00;94283.59;;;13.44;61.55
53522;BME280;39398;48.382;9.802;2022-10-31T01:38:02;94282.53;;;13.39;61.60
53522;BME280;39398;48.382;9.802;2022-10-31T01:39:06;94275.88;;;13.56;60.24
53522;BME280;39398;48.382;9.802;2022-10-31T01:40:09;94282.19;;;13.55;60.34
53522;BME280;39398;48.382;9.802;2022-10-31T01:41:12;94270.50;;;13.43;61.01
53522;BME280;39398;48.382;9.802;2022-10-31T01:42:18;94280.50;;;13.28;61.11
53522;BME280;39398;48.382;9.802;2022-10-31T01:43:19;94282.66;;;13.24;61.35
53522;BME280;39398;48.382;9.802;2022-10-31T01:44:50;94280.16;;;13.02;62.62
53522;BME280;39398;48.382;9.802;2022-10-31T01:45:54;94286.41;;;12.88;63.41
53522;BME280;39398;48.382;9.802;2022-10-31T01:46:58;94279.44;;;12.80;64.09
53522;BME280;39398;48.382;9.802;2022-10-31T01:48:00;94279.53;;;13.00;63.66
53522;BME280;39398;48.382;9.802;2022-10-31T01:49:04;94275.22;;;12.93;64.14
53522;BME280;39398;48.382;9.802;2022-10-31T01:50:13;94283.22;;;13.06;63.26
53522;BME280;39398;48.382;9.802;2022-10-31T01:51:16;94273.47;;;13.13;62.59
53522;BME280;39398;48.382;9.802;2022-10-31T01:52:24;94272.72;;;13.26;61.79
53522;BME280;39398;48.382;9.802;2022-10-31T01:53:26;94277.88;;;13.47;60.55
53522;BME280;39398;48.382;9.802;2022-10-31T01:54:30;94270.34;;;13.51;60.09
53522;BME280;39398;48.382;9.802;2022-10-31T01:55:35;94268.34;;;13.66;59.47
53522;BME280;39398;48.382;9.802;2022-10-31T01:56:43;94274.47;;;13.87;58.29
53522;BME280;39398;48.382;9.802;2022-10-31T01:57:50;94268.16;;;14.01;57.63
53522;BME280;39398;48.382;9.802;2022-10-31T01:58:54;94269.38;;;14.12;57.47
53522;BME280;39398;48.382;9.802;2022-10-31T01:59:59;94272.44;;;14.15;57.03
53522;BME280;39398;48.382;9.802;2022-10-31T02:01:03;94268.97;;;14.15;57.12
53522;BME280;39398;48.382;9.802;2022-10-31T02:02:08;94268.16;;;14.14;57.29
53522;BME280;39398;48.382;9.802;2022-10-31T02:03:11;94268.34;;;14.13;57.26
53522;BME280;39398;48.382;9.802;2022-10-31T02:04:12;94276.53;;;14.18;57.25
53522;BME280;39398;48.382;9.802;2022-10-31T02:05:18;94268.56;;;13.98;58.03
53522;BME280;39398;48.382;9.802;2022-10-31T02:06:27;94274.06;;;13.83;58.33
53522;BME280;39398;48.382;9.802;2022-10-31T02:07:36;94277.53;;;13.84;58.59
53522;BME280;39398;48.382;9.802;2022-10-31T02:08:39;94272.03;;;13.79;58.44
53522;BME280;39398;48.382;9.802;2022-10-31T02:09:43;94273.03;;;13.84;58.25
53522;BME280;39398;48.382;9.802;2022-10-31T02:10:46;94269.16;;;13.80;58.19
53522;BME280;39398;48.382;9.802;2022-10-31T02:11:47;94275.69;;;13.84;57.91
53522;BME280;39398;48.382;9.802;2022-10-31T02:12:50;94271.41;;;13.90;57.60
53522;BME280;39398;48.382;9.802;2022-10-31T02:13:53;94268.16;;;13.94;57.74
53522;BME280;39398;48.382;9.802;2022-10-31T02:14:54;94272.22;;;13.84;57.96
53522;BME280;39398;48.382;9.802;2022-10-31T02:15:58;94282.41;;;13.73;58.33
53522;BME280;39398;48.382;9.802;2022-10-31T02:17:01;94274.84;;;13.64;58.88
53522;BME280;39398;48.382;9.802;2022-10-31T02:18:03;94270.59;;;13.69;58.69
53522;BME280;39398;48.382;9.802;2022-10-31T02:19:07;94271.19;;;13.78;58.46
53522;BME280;39398;48.382;9.802;2022-10-31T02:20:15;94263.03;;;13.86;58.12
53522;BME280;39398;48.382;9.802;2022-10-31T02:21:19;94271.19;;;13.78;58.46
53522;BME280;39398;48.382;9.802;2022-10-31T02:22:27;94273.22;;;13.56;59.27
53522;BME280;39398;48.382;9.802;2022-10-31T02:23:54;94266.06;;;13.57;59.91
53522;BME280;39398;48.382;9.802;2022-10-31T02:25:10;94269.31;;;13.59;59.98
53522;BME280;39398;48.382;9.802;2022-10-31T02:28:35;94263.44;;;13.70;60.46
53522;BME280;39398;48.382;9.802;2022-10-31T02:30:10;94267.94;;;13.83;60.14
53522;BME280;39398;48.382;9.802;2022-10-31T02:31:25;94261.00;;;13.82;60.25
53522;BME280;39398;48.382;9.802;2022-10-31T02:32:41;94262.63;;;13.83;60.29
53522;BME280;39398;48.382;9.802;2022-10-31T02:33:49;94267.72;;;13.91;60.04
53522;BME280;39398;48.382;9.802;2022-10-31T02:34:57;94256.94;;;13.92;59.98
53522;BME280;39398;48.382;9.802;2022-10-31T02:36:05;94250.81;;;13.92;60.02
53522;BME280;39398;48.382;9.802;2022-10-31T02:37:13;94258.97;;;13.97;60.23
53522;BME280;39398;48.382;9.802;2022-10-31T02:38:24;94258.78;;;13.99;60.14
53522;BME280;39398;48.382;9.802;2022-10-31T02:39:35;94255.91;;;14.00;60.12
53522;BME280;39398;48.382;9.802;2022-10-31T02:40:46;94255.91;;;14.00;60.16
53522;BME280;39398;48.382;9.802;2022-10-31T02:41:52;94265.47;;;13.88;60.43
53522;BME280;39398;48.382;9.802;2022-10-31T02:43:03;94254.44;;;13.71;61.55
53522;BME280;39398;48.382;9.802;2022-10-31T02:44:09;94260.56;;;13.78;61.05
53522;BME280;39398;48.382;9.802;2022-10-31T02:45:16;94255.72;;;13.95;60.58
53522;BME280;39398;48.382;9.802;2022-10-31T02:46:27;94255.72;;;14.02;60.13
53522;BME280;39398;48.382;9.802;2022-10-31T02:47:35;94258.78;;;13.99;60.30
53522;BME280;39398;48.382;9.802;2022-10-31T02:48:39;94258.75;;;14.12;59.87
53522;BME280;39398;48.382;9.802;2022-10-31T02:49:47;94263.44;;;14.16;59.80
53522;BME280;39398;48.382;9.802;2022-10-31T02:50:53;94262.22;;;14.19;59.51
53522;BME280;39398;48.382;9.802;2022-10-31T02:51:56;94260.59;;;14.18;59.84
53522;BME280;39398;48.382;9.802;2022-10-31T02:52:58;94266.53;;;14.20;59.84
53522;BME280;39398;48.382;9.802;2022-10-31T02:53:59;94263.03;;;14.19;60.15
53522;BME280;39398;48.382;9.802;2022-10-31T02:55:10;94262.84;;;14.28;60.14
53522;BME280;39398;48.382;9.802;2022-10-31T02:56:13;94263.25;;;14.31;60.00
53522;BME280;39398;48.382;9.802;2022-10-31T02:57:17;94262.44;;;14.31;60.13
53522;BME280;39398;48.382;9.802;2022-10-31T02:58:22;94259.56;;;14.32;60.13
53522;BME280;39398;48.382;9.802;2022-10-31T02:59:26;94261.41;;;14.25;60.64
53522;BME280;39398;48.382;9.802;2022-10-31T03:00:28;94258.53;;;14.13;60.98
53522;BME280;39398;48.382;9.802;2022-10-31T03:03:07;94256.94;;;13.99;62.13
53522;BME280;39398;48.382;9.802;2022-10-31T03:04:34;94254.06;;;13.87;62.69
53522;BME280;39398;48.382;9.802;2022-10-31T03:05:47;94256.72;;;13.87;62.51
53522;BME280;39398;48.382;9.802;2022-10-31T03:06:54;94258.78;;;13.99;62.25
53522;BME280;39398;48.382;9.802;2022-10-31T03:08:04;94253.88;;;14.02;62.12
53522;BME280;39398;48.382;9.802;2022-10-31T03:09:13;94253.47;;;13.99;62.23
53522;BME280;39398;48.382;9.802;2022-10-31T03:10:30;94254.06;;;13.81;63.14
53522;BME280;39398;48.382;9.802;2022-10-31T03:11:36;94253.03;;;13.75;63.35
53522;BME280;39398;48.382;9.802;2022-10-31T03:12:49;94256.28;;;13.64;63.59
53522;BME280;39398;48.382;9.802;2022-10-31T03:14:02;94253.81;;;13.62;63.89
53522;BME280;39398;48.382;9.802;2022-10-31T03:15:13;94264.81;;;13.53;64.40
53522;BME280;39398;48.382;9.802;2022-10-31T03:16:17;94259.72;;;13.51;64.50
53522;BME280;39398;48.382;9.802;2022-10-31T03:17:27;94261.34;;;13.52;64.60
53522;BME280;39398;48.382;9.802;2022-10-31T03:18:36;94259.91;;;13.49;64.79
53522;BME280;39398;48.382;9.802;2022-10-31T03:19:40;94254.44;;;13.51;64.74
53522;BME280;39398;48.382;9.802;2022-10-31T03:20:47;94249.75;;;13.66;64.13
53522;BME280;39398;48.382;9.802;2022-10-31T03:21:51;94252.59;;;13.58;64.47
53522;BME280;39398;48.382;9.802;2022-10-31T03:22:55;94252.41;;;13.60;64.73
53522;BME280;39398;48.382;9.802;2022-10-31T03:23:59;94252.00;;;13.56;64.67
53522;BME280;39398;48.382;9.802;2022-10-31T03:25:03;94246.91;;;13.68;64.62
53522;BME280;39398;48.382;9.802;2022-10-31T03:26:07;94253.81;;;13.62;64.84
53522;BME280;39398;48.382;9.802;2022-10-31T03:27:12;94253.22;;;13.67;65.00
53522;BME280;39398;48.382;9.802;2022-10-31T03:28:18;94247.69;;;13.62;64.99
53522;BME280;39398;48.382;9.802;2022-10-31T03:29:26;94253.81;;;13.56;65.07
53522;BME280;39398;48.382;9.802;2022-10-31T03:30:29;94254.03;;;13.54;65.29
53522;BME280;39398;48.382;9.802;2022-10-31T03:31:35;94254.44;;;13.51;65.30
53522;BME280;39398;48.382;9.802;2022-10-31T03:32:43;94246.88;;;13.55;65.71
53522;BME280;39398;48.382;9.802;2022-10-31T03:33:47;94252.00;;;13.56;65.42
53522;BME280;39398;48.382;9.802;2022-10-31T03:34:49;94253.25;;;13.73;64.78
53522;BME280;39398;48.382;9.802;2022-10-31T03:35:54;94252.66;;;13.91;64.15
53522;BME280;39398;48.382;9.802;2022-10-31T03:36:59;94250.59;;;14.00;63.90
53522;BME280;39398;48.382;9.802;2022-10-31T03:38:03;94252.84;;;14.03;63.84
53522;BME280;39398;48.382;9.802;2022-10-31T03:39:11;94255.31;;;14.05;63.94
53522;BME280;39398;48.382;9.802;2022-10-31T03:40:15;94252.81;;;14.10;63.84
53522;BME280;39398;48.382;9.802;2022-10-31T03:41:19;94256.31;;;14.04;64.15
53522;BME280;39398;48.382;9.802;2022-10-31T03:42:24;94253.88;;;14.02;64.31
53522;BME280;39398;48.382;9.802;2022-10-31T03:43:29;94255.72;;;13.88;64.75
53522;BME280;39398;48.382;9.802;2022-10-31T03:44:33;94251.00;;;14.04;64.28
53522;BME280;39398;48.382;9.802;2022-10-31T03:45:39;94249.78;;;14.00;64.43
53522;BME280;39398;48.382;9.802;2022-10-31T03:46:43;94249.16;;;14.11;64.14
53522;BME280;39398;48.382;9.802;2022-10-31T03:47:46;94245.28;;;14.07;64.19
53522;BME280;39398;48.382;9.802;2022-10-31T03:48:47;94243.03;;;14.04;64.23
53522;BME280;39398;48.382;9.802;2022-10-31T03:49:49;94245.91;;;13.89;64.99
53522;BME280;39398;48.382;9.802;2022-10-31T03:50:58;94247.13;;;13.80;65.40
53522;BME280;39398;48.382;9.802;2022-10-31T03:52:08;94246.50;;;13.71;65.83
53522;BME280;39398;48.382;9.802;2022-10-31T03:53:16;94250.81;;;13.79;65.84
53522;BME280;39398;48.382;9.802;2022-10-31T03:54:24;94246.09;;;13.87;65.37
53522;BME280;39398;48.382;9.802;2022-10-31T03:55:28;94254.06;;;14.07;64.44
53522;BME280;39398;48.382;9.802;2022-10-31T03:56:35;94250.56;;;14.13;64.43
53522;BME280;39398;48.382;9.802;2022-10-31T03:57:40;94250.78;;;14.18;64.14
53522;BME280;39398;48.382;9.802;2022-10-31T03:58:48;94248.94;;;14.19;64.12
53522;BME280;39398;48.382;9.802;2022-10-31T03:59:58;94256.09;;;14.12;64.30
53522;BME280;39398;48.382;9.802;2022-10-31T04:01:03;94245.28;;;14.07;64.67
53522;BME280;39398;48.382;9.802;2022-10-31T04:02:10;94255.91;;;14.07;64.63
53522;BME280;39398;48.382;9.802;2022-10-31T04:03:20;94256.31;;;14.10;64.38
53522;BME280;39398;48.382;9.802;2022-10-31T04:04:24;94251.63;;;13.92;64.96
53522;BME280;39398;48.382;9.802;2022-10-31T04:05:27;94245.50;;;13.92;65.15
53522;BME280;39398;48.382;9.802;2022-10-31T04:06:30;94252.66;;;13.85;65.43
53522;BME280;39398;48.382;9.802;2022-10-31T04:07:39;94248.97;;;13.99;64.87
53522;BME280;39398;48.382;9.802;2022-10-31T04:08:45;94244.47;;;14.00;64.94
53522;BME280;39398;48.382;9.802;2022-10-31T04:09:50;94248.75;;;14.01;64.99
53522;BME280;39398;48.382;9.802;2022-10-31T04:10:54;94240.19;;;13.99;65.04
53522;BME280;39398;48.382;9.802;2022-10-31T04:11:58;94242.44;;;13.95;65.30
53522;BME280;39398;48.382;9.802;2022-10-31T04:13:03;94240.78;;;13.87;65.75
53522;BME280;39398;48.382;9.802;2022-10-31T04:14:06;94249.38;;;13.69;66.21
53522;BME280;39398;48.382;9.802;2022-10-31T04:15:09;94237.09;;;13.68;66.48
53522;BME280;39398;48.382;9.802;2022-10-31T04:16:12;94244.84;;;13.57;66.68
53522;BME280;39398;48.382;9.802;2022-10-31T04:17:20;94243.63;;;13.59;66.83
53522;BME280;39398;48.382;9.802;2022-10-31T04:18:25;94240.13;;;13.52;67.17
53522;BME280;39398;48.382;9.802;2022-10-31T04:19:27;94244.44;;;13.46;67.29
53522;BME280;39398;48.382;9.802;2022-10-31T04:20:32;94248.28;;;13.37;67.77
53522;BME280;39398;48.382;9.802;2022-10-31T04:21:34;94240.13;;;13.39;67.77
53522;BME280;39398;48.382;9.802;2022-10-31T04:22:35;94246.22;;;13.33;67.75
53522;BME280;39398;48.382;9.802;2022-10-31T04:23:37;94238.03;;;13.21;68.05
53522;BME280;39398;48.382;9.802;2022-10-31T04:24:40;94236.97;;;13.15;68.55
53522;BME280;39398;48.382;9.802;2022-10-31T04:25:41;94240.84;;;13.13;68.78
53522;BME280;39398;48.382;9.802;2022-10-31T04:26:43;94245.06;;;13.00;68.97
53522;BME280;39398;48.382;9.802;2022-10-31T04:27:44;94235.44;;;12.86;69.61
53522;BME280;39398;48.382;9.802;2022-10-31T04:28:45;94245.78;;;12.74;70.03
53522;BME280;39398;48.382;9.802;2022-10-31T04:29:47;94239.22;;;12.64;70.58
53522;BME280;39398;48.382;9.802;2022-10-31T04:30:51;94240.59;;;12.60;70.99
53522;BME280;39398;48.382;9.802;2022-10-31T04:31:53;94235.91;;;12.55;70.93
53522;BME280;39398;48.382;9.802;2022-10-31T04:32:54;94239.91;;;12.44;71.31
53522;BME280;39398;48.382;9.802;2022-10-31T04:33:57;94238.28;;;12.43;71.63
53522;BME280;39398;48.382;9.802;2022-10-31T04:34:58;94232.94;;;12.37;71.98
53522;BME280;39398;48.382;9.802;2022-10-31T04:36:00;94232.56;;;12.40;71.86
53522;BME280;39398;48.382;9.802;2022-10-31T04:37:01;94227.50;;;12.45;71.80
53522;BME280;39398;48.382;9.802;2022-10-31T04:38:03;94229.53;;;12.43;71.82
53522;BME280;39398;48.382;9.802;2022-10-31T04:39:04;94228.28;;;12.39;72.14
53522;BME280;39398;48.382;9.802;2022-10-31T04:40:06;94228.25;;;12.32;72.31
53522;BME280;39398;48.382;9.802;2022-10-31T04:41:08;94229.28;;;12.38;72.33
53522;BME280;39398;48.382;9.802;2022-10-31T04:42:10;94227.47;;;12.38;72.12
53522;BME280;39398;48.382;9.802;2022-10-31T04:43:11;94233.75;;;12.37;72.16
53522;BME280;39398;48.382;9.802;2022-10-31T04:44:13;94226.16;;;12.27;72.41
53522;BME280;39398;48.382;9.802;2022-10-31T04:45:14;94229.44;;;12.29;72.74
53522;BME280;39398;48.382;9.802;2022-10-31T04:46:21;94237.38;;;12.29;72.86
53522;BME280;39398;48.382;9.802;2022-10-31T04:47:23;94225.78;;;12.30;72.66
53522;BME280;39398;48.382;9.802;2022-10-31T04:48:24;94230.50;;;12.35;72.80
53522;BME280;39398;48.382;9.802;2022-10-31T04:49:27;94229.72;;;12.41;72.68
53522;BME280;39398;48.382;9.802;2022-10-31T04:50:29;94232.59;;;12.46;72.49
53522;BME280;39398;48.382;9.802;2022-10-31T04:51:30;94227.09;;;12.41;72.75
53522;BME280;39398;48.382;9.802;2022-10-31T04:52:32;94230.13;;;12.38;72.83
53522;BME280;39398;48.382;9.802;2022-10-31T04:53:33;94230.94;;;12.39;72.83
53522;BME280;39398;48.382;9.802;2022-10-31T04:54:35;94225.03;;;12.43;72.70
53522;BME280;39398;48.382;9.802;2022-10-31T04:55:36;94226.72;;;12.51;72.80
53522;BME280;39398;48.382;9.802;2022-10-31T04:56:38;94231.44;;;12.55;72.50
53522;BME280;39398;48.382;9.802;2022-10-31T04:57:43;94225.91;;;12.57;72.55
53522;BME280;39398;48.382;9.802;2022-10-31T04:58:44;94221.47;;;12.57;72.49
53522;BME280;39398;48.382;9.802;2022-10-31T04:59:46;94222.06;;;12.60;72.30
53522;BME280;39398;48.382;9.802;2022-10-31T05:00:51;94228.81;;;12.62;72.49
53522;BME280;39398;48.382;9.802;2022-10-31T05:01:52;94229.03;;;12.61;72.60
53522;BME280;39398;48.382;9.802;2022-10-31T05:02:56;94225.31;;;12.55;72.84
53522;BME280;39398;48.382;9.802;2022-10-31T05:03:58;94224.91;;;12.51;72.73
53522;BME280;39398;48.382;9.802;2022-10-31T05:05:00;94223.69;;;12.54;72.79
53522;BME280;39398;48.382;9.802;2022-10-31T05:06:02;94223.88;;;12.52;72.92
53522;BME280;39398;48.382;9.802;2022-10-31T05:07:03;94225.50;;;12.53;73.16
53522;BME280;39398;48.382;9.802;2022-10-31T05:08:05;94224.09;;;12.51;73.26
53522;BME280;39398;48.382;9.802;2022-10-31T05:09:07;94221.84;;;12.54;73.10
53522;BME280;39398;48.382;9.802;2022-10-31T05:10:09;94221.66;;;12.56;73.09
53522;BME280;39398;48.382;9.802;2022-10-31T05:11:10;94219.63;;;12.58;73.04
53522;BME280;39398;48.382;9.802;2022-10-31T05:12:12;94219.41;;;12.60;73.07
53522;BME280;39398;48.382;9.802;2022-10-31T05:13:13;94213.53;;;12.57;73.34
53522;BME280;39398;48.382;9.802;2022-10-31T05:14:15;94220.03;;;12.55;73.43
53522;BME280;39398;48.382;9.802;2022-10-31T05:15:18;94216.75;;;12.53;73.38
53522;BME280;39398;48.382;9.802;2022-10-31T05:16:19;94212.28;;;12.60;73.08
53522;BME280;39398;48.382;9.802;2022-10-31T05:17:21;94213.31;;;12.59;73.41
53522;BME280;39398;48.382;9.802;2022-10-31T05:18:22;94217.81;;;12.65;73.09
53522;BME280;39398;48.382;9.802;2022-10-31T05:19:24;94219.28;;;12.68;73.02
53522;BME280;39398;48.382;9.802;2022-10-31T05:20:29;94216.00;;;12.72;73.19
53522;BME280;39398;48.382;9.802;2022-10-31T05:21:31;94211.75;;;12.78;72.79
53522;BME280;39398;48.382;9.802;2022-10-31T05:22:32;94206.13;;;12.94;71.70
53522;BME280;39398;48.382;9.802;2022-10-31T05:23:34;94210.81;;;12.92;72.14
53522;BME280;39398;48.382;9.802;2022-10-31T05:24:35;94214.72;;;13.03;71.36
53522;BME280;39398;48.382;9.802;2022-10-31T05:25:37;94208.00;;;13.07;71.32
53522;BME280;39398;48.382;9.802;2022-10-31T05:26:38;94212.31;;;13.15;70.99
53522;BME280;39398;48.382;9.802;2022-10-31T05:27:40;94208.66;;;13.22;70.83
53522;BME280;39398;48.382;9.802;2022-10-31T05:28:41;94206.25;;;13.28;70.60
53522;BME280;39398;48.382;9.802;2022-10-31T05:29:43;94211.97;;;13.24;71.30
53522;BME280;39398;48.382;9.802;2022-10-31T05:30:44;94207.06;;;13.28;71.41
53522;BME280;39398;48.382;9.802;2022-10-31T05:31:46;94201.75;;;13.28;70.79
53522;BME280;39398;48.382;9.802;2022-10-31T05:32:49;94203.78;;;13.33;70.79
53522;BME280;39398;48.382;9.802;2022-10-31T05:33:51;94200.75;;;13.36;70.02
53522;BME280;39398;48.382;9.802;2022-10-31T05:34:52;94201.50;;;13.16;70.96
53522;BME280;39398;48.382;9.802;2022-10-31T05:35:55;94207.34;;;12.98;71.53
53522;BME280;39398;48.382;9.802;2022-10-31T05:36:56;94206.09;;;12.88;72.21
53522;BME280;39398;48.382;9.802;2022-10-31T05:37:59;94202.00;;;12.85;72.68
53522;BME280;39398;48.382;9.802;2022-10-31T05:39:00;94200.75;;;12.74;72.98
53522;BME280;39398;48.382;9.802;2022-10-31T05:40:02;94198.06;;;12.61;73.76
53522;BME280;39398;48.382;9.802;2022-10-31T05:41:08;94197.00;;;12.55;73.85
53522;BME280;39398;48.382;9.802;2022-10-31T05:42:10;94204.34;;;12.60;74.19